Aérodrome :
LOGIN :

S'inscrire | Disclaimer

   EN    FR    IT 

 










Légende :    VFR   VFR Marginal   IFR   IFR Intensif   IFR Très Intensif
Visi : 
Plafond : 
>= 8 km
>= 3000ft
5 à 8 km
1000 à 3000 ft
1500m à 5 km
500 à 1000 ft
800 à 1500m
200 à 500 ft
< 800m
< 200 ft
Symboles :   Orages  Brouillard  Fortes neiges  Fortes précipitations  Vent > 20 kt
SIGMETs :   Divers  Orages  Givrage  Turbulence  Onde Orograph.  Cendres Volcan.







- Altitude de l'aérodrome : 3 ft
- Code IATA : LWR


EHLW - Leuuwarden Air Base

DERNIER METAR :
  • 201525Z AUTO 28008KT 250V330 9999 SCT023 BKN026 18/12 Q1012 WHT

METARs EXPIRÉS :
  • 201520Z AUTO 29009KT 250V330 9999 SCT023 SCT031 18/12 Q1012 WHT
  • 201455Z AUTO 29008KT 260V360 9999 FEW018 SCT022 BKN026 17/12 Q1012 WHT
  • 201437Z AUTO 31008KT 260V330 9999 FEW020 SCT024 17/12 Q1012 WHT
  • 201427Z AUTO 30009KT 260V340 9999 FEW018 BKN034 18/13 Q1011 BLU
  • 201413Z AUTO 30008KT 260V350 9999 FEW018 OVC036 17/13 Q1011 BLU
  • 201355Z AUTO 31009KT 280V340 9999 SCT033 OVC038 18/13 Q1011 BLU 33010KT 9999 BKN027
  • 201325Z AUTO 34005KT 300V360 9999 -DZ FEW018CB BKN029 BKN034 OVC045 16/12 Q1011 BLU 33010KT 9999 BKN027
  • 201255Z AUTO 34007KT 310V020 9999 FEW017CB OVC026 17/12 Q1011 BLU 33010KT 9999 BKN027

TAF TAF EHLW
Valide du 20 à 13h jusqu'au 21 à 01h UTC


201213Z 2013/2101 30010KT 9999 SCT025 BKN038
BECMG 2019/2022 21006KT
Pas de NOTAMs connus pour ce terrain.



MET'MAP, la Météo Aéronautique d'un coup d'oeil ! - Copyright ORBIFLY Décembre 2007 - Disclaimer

ORBIFLY MET'MAP TEAM :

Programmation & Développement : Alexandra Zaïnal
Conception & Développement : Baudouin d'Aumeries
Co-Programmation & Développement : Marc-Olivier Méhu
Soutien technique & logistique : Manuel Goepfert

Contact : metmap@orbifly.com




SOURCES & CREDITS :

   NOAA